Time;durP1;ratioP1;P1;durP2;ratioP2;P2;SDS_P1;SDS_P2;PMS_P1;PMS_P2;Temp;Humidity;BMP_temperature;BMP_pressure;BME280_temperature;BME280_humidity;BME280_pressure;Samples;Min_cycle;Max_cycle;Signal;HPM_P1;HPM_P2
2024/01/14 00:01:01;;;;;;;0.07;0.07;;;;;;;1.60;100.00;99018.03;5096199;28;20346;-52
2024/01/14 00:03:48;;;;;;;0.00;0.00;;;;;;;1.71;100.00;99017.72;5096235;28;20187;-52
2024/01/14 00:06:35;;;;;;;0.10;0.10;;;;;;;1.60;100.00;99010.22;5095116;28;20704;-51
2024/01/14 00:09:23;;;;;;;0.10;0.10;;;;;;;1.59;100.00;99015.50;5090218;28;20223;-52
2024/01/14 00:12:11;;;;;;;0.10;0.10;;;;;;;1.63;100.00;99017.09;5075873;28;20194;-52
2024/01/14 00:14:58;;;;;;;0.00;0.00;;;;;;;1.54;100.00;99012.16;5076061;28;20721;-52
2024/01/14 00:17:45;;;;;;;0.10;0.10;;;;;;;1.59;100.00;99013.72;5075868;28;20192;-52
2024/01/14 00:20:32;;;;;;;0.10;0.10;;;;;;;1.62;100.00;99023.22;5075204;28;20203;-52
2024/01/14 00:23:19;;;;;;;0.03;0.03;;;;;;;1.39;100.00;99021.31;5092381;28;20223;-52
2024/01/14 00:26:06;;;;;;;0.00;0.00;;;;;;;1.53;100.00;99016.50;5096168;28;20314;-52
2024/01/14 00:28:57;;;;;;;0.03;0.03;;;;;;;1.50;100.00;99005.31;5095944;28;20228;-52
2024/01/14 00:31:43;;;;;;;0.10;0.10;;;;;;;1.55;100.00;98998.22;5095969;28;20265;-51
2024/01/14 00:34:30;;;;;;;0.10;0.10;;;;;;;1.40;100.00;98991.69;5095527;28;20261;-52
2024/01/14 00:37:17;;;;;;;0.10;0.10;;;;;;;1.34;100.00;98987.50;5095103;28;20186;-52
2024/01/14 00:40:07;;;;;;;0.00;0.00;;;;;;;1.34;100.00;98986.66;5095672;28;20245;-52
2024/01/14 00:42:54;;;;;;;0.07;0.07;;;;;;;1.43;100.00;98991.59;5095686;28;20237;-52
2024/01/14 00:45:42;;;;;;;0.10;0.10;;;;;;;1.32;100.00;98994.53;5080342;28;20195;-52
2024/01/14 00:48:30;;;;;;;0.00;0.00;;;;;;;1.32;100.00;98978.88;5091768;28;20214;-52
2024/01/14 00:51:16;;;;;;;0.00;0.00;;;;;;;1.32;100.00;98986.69;5073967;28;20269;-52
2024/01/14 00:54:03;;;;;;;0.10;0.10;;;;;;;1.23;100.00;98983.50;5075191;28;20199;-52
2024/01/14 00:56:50;;;;;;;0.03;0.03;;;;;;;1.38;100.00;98980.47;5075202;28;20191;-51
2024/01/14 00:59:37;;;;;;;0.10;0.10;;;;;;;1.55;100.00;98977.34;5082409;28;20214;-52
2024/01/14 01:02:25;;;;;;;0.10;0.10;;;;;;;1.39;100.00;98971.72;5095390;28;20190;-52
2024/01/14 01:05:12;;;;;;;0.10;0.10;;;;;;;1.36;100.00;98970.06;5078565;28;20569;-52
2024/01/14 01:07:59;;;;;;;0.10;0.10;;;;;;;1.55;100.00;98974.75;5079600;28;20206;-52
2024/01/14 01:10:46;;;;;;;0.10;0.10;;;;;;;1.56;100.00;98969.47;5094913;28;20645;-52
2024/01/14 01:13:33;;;;;;;0.10;0.10;;;;;;;1.52;100.00;98972.19;5095089;28;20199;-52
2024/01/14 01:16:20;;;;;;;0.10;0.10;;;;;;;1.46;100.00;98957.59;5094914;28;20264;-52
2024/01/14 01:19:08;;;;;;;0.00;0.00;;;;;;;1.39;100.00;98950.84;5094863;28;20202;-52
2024/01/14 01:21:55;;;;;;;0.10;0.10;;;;;;;1.24;100.00;98951.31;5093368;28;20218;-52
2024/01/14 01:24:42;;;;;;;0.10;0.10;;;;;;;1.07;100.00;98941.38;5094872;28;20198;-51
2024/01/14 01:27:29;;;;;;;0.10;0.10;;;;;;;1.00;100.00;98938.09;5094768;28;20206;-52
2024/01/14 01:30:16;;;;;;;0.00;0.00;;;;;;;0.99;100.00;98930.31;5094664;28;20215;-52
2024/01/14 01:33:03;;;;;;;0.10;0.10;;;;;;;0.97;100.00;98939.94;5094588;28;20206;-51
2024/01/14 01:35:51;;;;;;;0.10;0.10;;;;;;;1.11;100.00;98943.84;5093528;28;20191;-52
2024/01/14 01:38:38;;;;;;;0.10;0.10;;;;;;;1.10;100.00;98946.50;5094559;28;20214;-52
2024/01/14 01:41:26;;;;;;;0.10;0.10;;;;;;;1.11;100.00;98953.41;5074172;28;20214;-52
2024/01/14 01:44:12;;;;;;;0.10;0.10;;;;;;;1.15;100.00;98944.59;5074179;28;20319;-52
2024/01/14 01:46:59;;;;;;;0.10;0.10;;;;;;;1.04;100.00;98925.81;5074178;28;20736;-52
2024/01/14 01:49:46;;;;;;;0.10;0.10;;;;;;;1.01;100.00;98931.13;5081863;28;20202;-52
2024/01/14 01:52:34;;;;;;;0.10;0.10;;;;;;;1.14;100.00;98937.69;5094378;28;20198;-52
2024/01/14 01:55:21;;;;;;;0.10;0.10;;;;;;;1.12;100.00;98929.91;5094339;28;20221;-52
2024/01/14 01:58:08;;;;;;;0.10;0.10;;;;;;;1.08;100.00;98922.22;5094044;28;20262;-52
2024/01/14 02:00:55;;;;;;;0.10;0.10;;;;;;;1.05;100.00;98932.72;5094202;28;20194;-52
2024/01/14 02:03:43;;;;;;;0.00;0.00;;;;;;;1.21;100.00;98934.00;5094220;28;20195;-52
2024/01/14 02:06:33;;;;;;;0.10;0.10;;;;;;;1.28;100.00;98935.53;5092667;28;20198;-52
2024/01/14 02:09:21;;;;;;;0.10;0.10;;;;;;;1.31;100.00;98916.31;5093636;28;20215;-52
2024/01/14 02:12:08;;;;;;;0.10;0.10;;;;;;;1.00;100.00;98906.81;5094019;28;20543;-52
2024/01/14 02:14:55;;;;;;;0.10;0.10;;;;;;;1.10;100.00;98917.81;5093795;28;20194;-52
2024/01/14 02:17:42;;;;;;;0.10;0.10;;;;;;;1.22;100.00;98927.88;5093957;28;20229;-52
2024/01/14 02:20:29;;;;;;;0.10;0.10;;;;;;;1.17;100.00;98924.56;5092407;28;20676;-51
2024/01/14 02:23:21;;;;;;;0.10;0.10;;;;;;;1.13;100.00;98930.75;5092755;28;20230;-52
2024/01/14 02:26:10;;;;;;;0.10;0.10;;;;;;;1.27;100.00;98918.16;5093805;28;20677;-52
2024/01/14 02:28:57;;;;;;;0.10;0.10;;;;;;;1.20;100.00;98919.25;5085136;28;20337;-51
2024/01/14 02:31:44;;;;;;;0.10;0.10;;;;;;;1.30;100.00;98893.75;5093544;28;20191;-52
2024/01/14 02:34:32;;;;;;;0.10;0.10;;;;;;;1.17;100.00;98880.22;5093630;28;20199;-52
2024/01/14 02:37:19;;;;;;;0.10;0.10;;;;;;;1.12;100.00;98872.53;5093366;28;20187;-52
2024/01/14 02:40:07;;;;;;;0.10;0.10;;;;;;;1.16;100.00;98899.38;5093314;28;20306;-52
2024/01/14 02:42:55;;;;;;;0.10;0.10;;;;;;;1.37;100.00;98882.22;5093518;28;20194;-52
2024/01/14 02:45:42;;;;;;;0.10;0.10;;;;;;;1.33;100.00;98877.97;5093474;28;20310;-52
2024/01/14 02:48:30;;;;;;;0.00;0.00;;;;;;;1.44;100.00;98883.72;5093115;28;20285;-52
2024/01/14 02:51:17;;;;;;;0.10;0.10;;;;;;;1.57;100.00;98887.66;5091904;28;20225;-52
2024/01/14 02:54:06;;;;;;;0.10;0.10;;;;;;;1.18;100.00;98870.66;5091470;28;20757;-51
2024/01/14 02:56:53;;;;;;;0.10;0.10;;;;;;;1.26;100.00;98872.13;5093231;28;20231;-52
2024/01/14 02:59:43;;;;;;;0.10;0.10;;;;;;;1.28;100.00;98859.88;5093139;28;20187;-52
2024/01/14 03:02:30;;;;;;;0.10;0.10;;;;;;;1.41;100.00;98855.13;5093223;28;20194;-52
2024/01/14 03:05:17;;;;;;;0.10;0.10;;;;;;;1.45;100.00;98830.66;5091783;28;20261;-52
2024/01/14 03:08:05;;;;;;;0.10;0.10;;;;;;;1.26;100.00;98843.44;5092908;28;20321;-52
2024/01/14 03:10:52;;;;;;;0.10;0.10;;;;;;;1.32;100.00;98832.78;5092989;28;20253;-52
2024/01/14 03:13:39;;;;;;;0.10;0.10;;;;;;;1.34;100.00;98828.34;5093034;28;20198;-53
2024/01/14 03:16:27;;;;;;;0.10;0.10;;;;;;;1.02;100.00;98838.97;5092978;28;20202;-52
2024/01/14 03:19:14;;;;;;;0.10;0.10;;;;;;;1.22;100.00;98840.94;5092966;28;20258;-52
2024/01/14 03:22:01;;;;;;;0.10;0.10;;;;;;;1.29;100.00;98845.94;5091453;28;20345;-52
2024/01/14 03:24:48;;;;;;;0.10;0.10;;;;;;;1.27;100.00;98862.53;5092913;28;20326;-52
2024/01/14 03:27:35;;;;;;;0.00;0.00;;;;;;;1.55;100.00;98868.59;5092804;28;20265;-52
2024/01/14 03:30:22;;;;;;;0.10;0.10;;;;;;;1.38;100.00;98861.28;5092745;28;20198;-52
2024/01/14 03:33:10;;;;;;;0.10;0.10;;;;;;;1.31;100.00;98853.69;5092914;28;20197;-51
2024/01/14 03:35:57;;;;;;;0.10;0.10;;;;;;;1.32;100.00;98858.00;5095697;28;20194;-52
2024/01/14 03:38:44;;;;;;;0.00;0.00;;;;;;;1.41;100.00;98834.25;5097032;28;20254;-52
2024/01/14 03:41:31;;;;;;;0.10;0.10;;;;;;;1.44;100.00;98840.19;5076544;28;20670;-52
2024/01/14 03:44:18;;;;;;;0.00;0.00;;;;;;;1.48;100.00;98835.75;5076590;28;20287;-52
2024/01/14 03:47:05;;;;;;;0.00;0.00;;;;;;;1.58;100.00;98846.75;5076562;28;20204;-52
2024/01/14 03:49:53;;;;;;;0.10;0.10;;;;;;;1.47;100.00;98833.19;5081658;28;20214;-51
2024/01/14 03:52:39;;;;;;;0.10;0.10;;;;;;;1.44;100.00;98821.09;5096659;28;20285;-52
2024/01/14 03:55:27;;;;;;;0.00;0.00;;;;;;;1.38;100.00;98800.44;5096796;28;20202;-52
2024/01/14 03:58:14;;;;;;;0.10;0.10;;;;;;;1.52;100.00;98826.06;5096626;28;20249;-52
2024/01/14 04:01:01;;;;;;;0.10;0.10;;;;;;;1.41;100.00;98815.97;5096698;28;20199;-52
2024/01/14 04:03:48;;;;;;;0.10;0.10;;;;;;;1.49;100.00;98820.97;5096437;28;20326;-52
2024/01/14 04:06:36;;;;;;;0.10;0.10;;;;;;;1.58;100.00;98813.69;5095102;28;20318;-52
2024/01/14 04:09:23;;;;;;;0.00;0.00;;;;;;;1.44;100.00;98811.50;5096245;28;20432;-52
2024/01/14 04:12:10;;;;;;;0.10;0.10;;;;;;;1.44;100.00;98802.81;5096297;28;20233;-52
2024/01/14 04:14:58;;;;;;;0.10;0.10;;;;;;;1.12;100.00;98814.31;5096272;28;20275;-52
2024/01/14 04:17:45;;;;;;;0.10;0.10;;;;;;;1.27;100.00;98818.19;5096070;28;20291;-52
2024/01/14 04:20:32;;;;;;;0.10;0.10;;;;;;;1.36;100.00;98804.84;5094728;28;20302;-52
2024/01/14 04:23:20;;;;;;;0.00;0.00;;;;;;;1.41;100.00;98805.53;5095425;28;20227;-52
2024/01/14 04:26:07;;;;;;;0.10;0.10;;;;;;;1.46;100.00;98802.81;5096179;28;20195;-52
2024/01/14 04:28:54;;;;;;;0.00;0.00;;;;;;;1.51;100.00;98800.88;5095844;28;20693;-53
2024/01/14 04:31:41;;;;;;;0.07;0.07;;;;;;;1.64;100.00;98797.81;5075418;28;20670;-52
2024/01/14 04:34:27;;;;;;;0.00;0.00;;;;;;;1.61;100.00;98800.50;5083589;28;20191;-52
2024/01/14 04:37:15;;;;;;;0.00;0.00;;;;;;;1.36;100.00;98803.09;5095838;28;20191;-52
2024/01/14 04:40:03;;;;;;;0.00;0.00;;;;;;;1.56;100.00;98796.38;5095740;28;20186;-52
2024/01/14 04:42:50;;;;;;;0.00;0.00;;;;;;;1.74;100.00;98790.53;5095654;28;20237;-52
2024/01/14 04:45:37;;;;;;;0.00;0.00;;;;;;;1.62;100.00;98775.25;5095214;28;20206;-53
2024/01/14 04:48:24;;;;;;;0.10;0.10;;;;;;;1.56;100.00;98781.56;5091261;28;20198;-52
2024/01/14 04:51:11;;;;;;;0.10;0.10;;;;;;;1.60;100.00;98782.31;5090929;28;20314;-52
2024/01/14 04:53:57;;;;;;;0.10;0.10;;;;;;;1.66;100.00;98788.19;5095763;28;20229;-51
2024/01/14 04:56:46;;;;;;;0.10;0.10;;;;;;;1.63;100.00;98777.81;5095542;28;20675;-52
2024/01/14 04:59:32;;;;;;;0.10;0.10;;;;;;;1.46;100.00;98774.09;5095403;28;20187;-52
2024/01/14 05:02:19;;;;;;;0.00;0.00;;;;;;;1.40;100.00;98777.75;5095516;28;20208;-52
2024/01/14 05:05:06;;;;;;;0.10;0.10;;;;;;;1.35;100.00;98777.03;5094025;28;20195;-52
2024/01/14 05:07:53;;;;;;;0.10;0.10;;;;;;;1.35;100.00;98771.81;5095244;28;20195;-52
2024/01/14 05:10:40;;;;;;;0.10;0.10;;;;;;;1.31;100.00;98771.06;5094949;28;20261;-52
2024/01/14 05:13:28;;;;;;;0.10;0.10;;;;;;;1.36;100.00;98763.97;5095222;28;20198;-52
2024/01/14 05:16:15;;;;;;;0.10;0.10;;;;;;;1.37;100.00;98763.06;5095014;28;20187;-52
2024/01/14 05:19:02;;;;;;;0.00;0.00;;;;;;;1.44;100.00;98761.94;5068060;28;20246;-52
2024/01/14 05:21:52;;;;;;;0.03;0.03;;;;;;;1.51;100.00;98770.41;5065853;28;20227;-52
2024/01/14 05:24:42;;;;;;;0.10;0.10;;;;;;;1.52;100.00;98766.03;5074579;28;20187;-53
2024/01/14 05:27:29;;;;;;;0.00;0.00;;;;;;;1.47;100.00;98765.38;5074767;28;20196;-52
2024/01/14 05:30:18;;;;;;;0.00;0.00;;;;;;;1.35;100.00;98764.00;5083165;28;20227;-52
2024/01/14 05:33:05;;;;;;;0.10;0.10;;;;;;;1.77;100.00;98755.63;5094516;28;20241;-52
2024/01/14 05:35:52;;;;;;;0.10;0.10;;;;;;;1.60;100.00;98753.59;5093463;28;20673;-51
2024/01/14 05:38:38;;;;;;;0.10;0.10;;;;;;;1.66;100.00;98753.41;5094796;28;20238;-52
2024/01/14 05:41:25;;;;;;;0.10;0.10;;;;;;;1.64;100.00;98753.44;5094436;28;20321;-52
2024/01/14 05:44:12;;;;;;;0.00;0.00;;;;;;;1.62;100.00;98759.59;5094650;28;20195;-53
2024/01/14 05:47:00;;;;;;;0.10;0.10;;;;;;;1.73;100.00;98755.72;5094554;28;20249;-53
2024/01/14 05:49:47;;;;;;;0.10;0.10;;;;;;;1.75;100.00;98753.06;5092760;28;20216;-52
2024/01/14 05:52:35;;;;;;;0.10;0.10;;;;;;;1.78;100.00;98752.09;5094503;28;20199;-52
2024/01/14 05:55:22;;;;;;;0.10;0.10;;;;;;;1.72;100.00;98753.16;5094341;28;20199;-51
2024/01/14 05:58:09;;;;;;;0.10;0.10;;;;;;;1.84;100.00;98749.28;5093383;28;20198;-52
2024/01/14 06:00:56;;;;;;;0.10;0.10;;;;;;;1.85;100.00;98743.16;5094275;28;20541;-52
2024/01/14 06:03:44;;;;;;;0.10;0.10;;;;;;;1.94;100.00;98755.88;5094147;28;20190;-52
2024/01/14 06:06:31;;;;;;;0.10;0.10;;;;;;;1.70;100.00;98753.22;5092737;28;20574;-52
2024/01/14 06:09:18;;;;;;;0.10;0.10;;;;;;;1.55;100.00;98753.75;5094032;28;20221;-52
2024/01/14 06:12:05;;;;;;;0.10;0.10;;;;;;;1.35;100.00;98761.38;5073818;28;20207;-52
2024/01/14 06:14:52;;;;;;;0.00;0.00;;;;;;;1.41;100.00;98755.97;5073665;28;20191;-52
2024/01/14 06:17:39;;;;;;;0.10;0.10;;;;;;;1.37;100.00;98751.78;5077040;28;20313;-52
2024/01/14 06:20:27;;;;;;;0.10;0.10;;;;;;;1.48;100.00;98754.03;5081438;28;20187;-52
2024/01/14 06:23:14;;;;;;;0.03;0.03;;;;;;;1.72;100.00;98753.16;5093239;28;20219;-52
2024/01/14 06:26:01;;;;;;;0.10;0.10;;;;;;;1.51;100.00;98741.72;5093683;28;20249;-52
2024/01/14 06:28:48;;;;;;;0.00;0.00;;;;;;;1.29;100.00;98748.56;5093798;28;20201;-52
2024/01/14 06:31:36;;;;;;;0.10;0.10;;;;;;;1.18;100.00;98750.69;5074310;28;20211;-52
2024/01/14 06:34:23;;;;;;;0.00;0.00;;;;;;;0.91;100.00;98748.03;5073770;28;20195;-53
2024/01/14 06:37:11;;;;;;;0.07;0.07;;;;;;;0.98;100.00;98751.31;5093227;28;20226;-52
2024/01/14 06:39:58;;;;;;;0.10;0.10;;;;;;;0.85;100.00;98738.66;5088178;28;20197;-52
2024/01/14 06:42:46;;;;;;;0.10;0.10;;;;;;;0.90;100.00;98748.94;5073406;28;20287;-52
2024/01/14 06:45:32;;;;;;;0.10;0.10;;;;;;;0.87;100.00;98743.84;5073199;28;20196;-51
2024/01/14 06:48:19;;;;;;;0.07;0.07;;;;;;;0.88;100.00;98745.53;5072909;28;20278;-52
2024/01/14 06:51:06;;;;;;;0.10;0.10;;;;;;;0.85;100.00;98749.06;5085601;28;20223;-51
2024/01/14 06:53:54;;;;;;;0.10;0.10;;;;;;;0.96;100.00;98740.06;5071620;28;20202;-53
2024/01/14 06:56:45;;;;;;;0.10;0.10;;;;;;;0.92;100.00;98736.72;5072975;28;20238;-52
2024/01/14 06:59:32;;;;;;;0.00;0.00;;;;;;;0.96;100.00;98742.66;5073733;28;20200;-52
2024/01/14 07:02:19;;;;;;;0.07;0.07;;;;;;;1.14;100.00;98739.47;5093173;28;20202;-52
2024/01/14 07:05:08;;;;;;;0.10;0.10;;;;;;;1.11;100.00;98742.19;5091523;28;20186;-52
2024/01/14 07:07:55;;;;;;;0.10;0.10;;;;;;;1.13;100.00;98729.94;5092993;28;20265;-52
2024/01/14 07:10:43;;;;;;;0.10;0.10;;;;;;;1.10;100.00;98730.91;5082352;28;20220;-53
2024/01/14 07:13:30;;;;;;;0.10;0.10;;;;;;;0.96;100.00;98725.28;5072640;28;20200;-52
2024/01/14 07:16:17;;;;;;;0.10;0.10;;;;;;;0.86;100.00;98729.06;5072704;28;20277;-52
2024/01/14 07:19:04;;;;;;;0.00;0.00;;;;;;;0.91;100.00;98731.56;5072888;28;20191;-52
2024/01/14 07:21:51;;;;;;;0.10;0.10;;;;;;;0.90;100.00;98729.84;5075893;28;20223;-52
2024/01/14 07:24:38;;;;;;;0.10;0.10;;;;;;;0.82;100.00;98727.47;5092746;28;20198;-52
2024/01/14 07:27:27;;;;;;;0.10;0.10;;;;;;;0.66;100.00;98732.31;5092694;28;20199;-52
2024/01/14 07:30:17;;;;;;;0.10;0.10;;;;;;;0.84;100.00;98733.50;5086340;28;20693;-52
2024/01/14 07:33:04;;;;;;;0.00;0.00;;;;;;;0.88;100.00;98729.91;5072601;28;20196;-52
2024/01/14 07:35:51;;;;;;;0.00;0.00;;;;;;;1.07;100.00;98730.16;5071319;28;20192;-52
2024/01/14 07:38:38;;;;;;;0.10;0.10;;;;;;;0.73;100.00;98732.97;5072590;28;20203;-53
2024/01/14 07:41:25;;;;;;;0.10;0.10;;;;;;;0.53;100.00;98739.66;5088684;28;20269;-52
2024/01/14 07:44:13;;;;;;;0.10;0.10;;;;;;;0.58;100.00;98744.75;5092832;28;20266;-52
2024/01/14 07:47:00;;;;;;;0.10;0.10;;;;;;;1.03;100.00;98737.22;5092773;28;20195;-52
2024/01/14 07:49:49;;;;;;;0.10;0.10;;;;;;;1.22;100.00;98734.84;5088927;28;20286;-52
2024/01/14 07:52:36;;;;;;;0.10;0.10;;;;;;;1.04;100.00;98725.03;5072474;28;20214;-52
2024/01/14 07:55:23;;;;;;;0.10;0.10;;;;;;;1.07;100.00;98727.56;5072465;28;20195;-52
2024/01/14 07:58:11;;;;;;;0.10;0.10;;;;;;;1.20;100.00;98722.78;5072452;28;20551;-52
2024/01/14 08:00:59;;;;;;;0.10;0.10;;;;;;;1.26;100.00;98718.22;5084510;28;20211;-52
2024/01/14 08:03:49;;;;;;;0.10;0.10;;;;;;;1.07;100.00;98714.53;5092661;28;20677;-53
2024/01/14 08:06:36;;;;;;;0.10;0.10;;;;;;;0.78;100.00;98705.88;5091088;28;20199;-52
2024/01/14 08:09:23;;;;;;;0.10;0.10;;;;;;;0.36;100.00;98717.63;5092376;28;20222;-52
2024/01/14 08:12:10;;;;;;;0.10;0.10;;;;;;;0.63;100.00;98719.38;5052026;28;20263;-52
2024/01/14 08:14:57;;;;;;;0.10;0.10;;;;;;;0.77;100.00;98714.59;5052157;28;20251;-52
2024/01/14 08:17:45;;;;;;;0.10;0.10;;;;;;;0.83;100.00;98711.78;5052188;28;20196;-52
2024/01/14 08:20:32;;;;;;;0.10;0.10;;;;;;;0.92;100.00;98713.25;5068913;28;20212;-52
2024/01/14 08:23:19;;;;;;;0.10;0.10;;;;;;;0.94;100.00;98703.63;5095789;28;20230;-53
2024/01/14 08:26:06;;;;;;;0.10;0.10;;;;;;;0.78;100.00;98707.66;5095868;28;20293;-52
2024/01/14 08:28:53;;;;;;;0.10;0.10;;;;;;;0.83;100.00;98714.41;5092743;28;20218;-52
2024/01/14 08:31:42;;;;;;;0.10;0.10;;;;;;;0.86;100.00;98703.88;5078135;28;20223;-52
2024/01/14 08:34:30;;;;;;;0.10;0.10;;;;;;;0.88;100.00;98703.84;5075626;28;20183;-51
2024/01/14 08:37:18;;;;;;;0.10;0.10;;;;;;;0.55;100.00;98703.13;5086255;28;20273;-52
2024/01/14 08:40:06;;;;;;;0.03;0.03;;;;;;;0.25;100.00;98700.56;5091501;28;20199;-52
2024/01/14 08:42:53;;;;;;;0.10;0.10;;;;;;;0.26;100.00;98693.59;5075234;28;20767;-52
2024/01/14 08:45:40;;;;;;;0.10;0.10;;;;;;;0.31;100.00;98696.94;5071906;28;20211;-52
2024/01/14 08:48:27;;;;;;;0.10;0.10;;;;;;;0.26;100.00;98698.81;5075402;28;20207;-53
2024/01/14 08:51:15;;;;;;;0.10;0.10;;;;;;;0.35;100.00;98701.13;5087294;28;20226;-53
2024/01/14 08:54:02;;;;;;;0.10;0.10;;;;;;;0.11;100.00;98694.06;5095406;28;20307;-51
2024/01/14 08:56:49;;;;;;;0.10;0.10;;;;;;;0.28;100.00;98699.59;5095523;28;20186;-52
2024/01/14 08:59:36;;;;;;;0.10;0.10;;;;;;;0.32;100.00;98696.03;5095227;28;20202;-52
2024/01/14 09:02:25;;;;;;;0.10;0.10;;;;;;;0.49;100.00;98701.59;5055154;28;20212;-53
2024/01/14 09:05:11;;;;;;;0.10;0.10;;;;;;;0.46;100.00;98711.22;5053670;28;20244;-52
2024/01/14 09:07:59;;;;;;;0.10;0.10;;;;;;;0.40;100.00;98703.63;5054784;28;20208;-52
2024/01/14 09:10:47;;;;;;;0.10;0.10;;;;;;;0.61;100.00;98708.16;5073624;28;20199;-52
2024/01/14 09:13:36;;;;;;;0.00;0.00;;;;;;;0.65;100.00;98703.69;5079848;28;20194;-52
2024/01/14 09:16:22;;;;;;;0.10;0.10;;;;;;;0.46;100.00;98690.38;5094951;28;20307;-52
2024/01/14 09:19:10;;;;;;;0.00;0.00;;;;;;;0.63;100.00;98690.72;5094795;28;20229;-52
2024/01/14 09:21:57;;;;;;;0.10;0.10;;;;;;;0.95;100.00;98700.09;5079411;28;20218;-52
2024/01/14 09:24:45;;;;;;;0.10;0.10;;;;;;;0.87;100.00;98696.91;5094763;28;20268;-52
2024/01/14 09:27:32;;;;;;;0.10;0.10;;;;;;;0.72;100.00;98695.66;5094862;28;20195;-52
2024/01/14 09:30:19;;;;;;;0.10;0.10;;;;;;;0.57;100.00;98701.31;5089421;28;20232;-52
2024/01/14 09:33:06;;;;;;;0.10;0.10;;;;;;;0.89;100.00;98692.50;5073950;28;20219;-52
2024/01/14 09:35:54;;;;;;;0.10;0.10;;;;;;;0.75;100.00;98686.88;5073245;28;20338;-52
2024/01/14 09:38:41;;;;;;;0.03;0.03;;;;;;;0.66;100.00;98694.97;5074537;28;20195;-52
2024/01/14 09:41:38;;;;;;;0.10;0.10;;;;;;;0.63;100.00;98698.53;5089031;28;20198;-52
2024/01/14 09:44:25;;;;;;;0.10;0.10;;;;;;;0.27;100.00;98703.13;5094550;28;20211;-52
2024/01/14 09:47:13;;;;;;;0.10;0.10;;;;;;;0.50;100.00;98700.69;5094508;28;20191;-52
2024/01/14 09:50:01;;;;;;;0.10;0.10;;;;;;;0.59;100.00;98688.28;5090326;28;20203;-53
2024/01/14 09:52:50;;;;;;;0.10;0.10;;;;;;;0.80;100.00;98688.44;5074077;28;20211;-52
2024/01/14 09:55:38;;;;;;;0.10;0.10;;;;;;;0.73;100.00;98686.91;5074151;28;20187;-52
2024/01/14 09:58:26;;;;;;;0.10;0.10;;;;;;;1.04;100.00;98691.97;5074071;28;20399;-51
2024/01/14 10:01:21;;;;;;;0.10;0.10;;;;;;;0.92;100.00;98688.94;5086381;28;20194;-53
2024/01/14 10:04:08;;;;;;;0.00;0.00;;;;;;;0.61;100.00;98687.31;5094076;28;20250;-52
2024/01/14 10:06:55;;;;;;;0.10;0.10;;;;;;;0.69;100.00;98681.88;5092903;28;20194;-52
2024/01/14 10:09:43;;;;;;;0.10;0.10;;;;;;;0.90;100.00;98677.72;5094059;28;20198;-52
2024/01/14 10:12:31;;;;;;;0.10;0.10;;;;;;;1.11;100.00;98685.66;5053513;28;20315;-53
2024/01/14 10:15:20;;;;;;;0.03;0.03;;;;;;;1.14;100.00;98676.88;5053706;28;20243;-52
2024/01/14 10:18:06;;;;;;;0.10;0.10;;;;;;;0.77;100.00;98672.91;5053675;28;20227;-52
2024/01/14 10:20:54;;;;;;;0.10;0.10;;;;;;;0.90;100.00;98670.75;5070821;28;20281;-52
2024/01/14 10:23:42;;;;;;;0.00;0.00;;;;;;;0.72;100.00;98669.59;5112990;28;20229;-52
2024/01/14 10:26:29;;;;;;;0.10;0.10;;;;;;;0.78;100.00;98665.94;5093627;28;20215;-52
2024/01/14 10:29:17;;;;;;;0.10;0.10;;;;;;;0.74;100.00;98657.34;5093202;28;20192;-53
2024/01/14 10:32:05;;;;;;;0.10;0.10;;;;;;;0.76;100.00;98658.16;5077937;28;20219;-52
2024/01/14 10:34:53;;;;;;;0.10;0.10;;;;;;;0.81;100.00;98644.97;5092272;28;20318;-52
2024/01/14 10:37:40;;;;;;;0.10;0.10;;;;;;;0.72;100.00;98640.91;5093367;28;20195;-52
2024/01/14 10:40:27;;;;;;;0.10;0.10;;;;;;;0.77;100.00;98638.16;5093353;28;20179;-52
2024/01/14 10:43:14;;;;;;;0.10;0.10;;;;;;;0.73;100.00;98639.16;5092885;28;20194;-52
2024/01/14 10:46:03;;;;;;;0.10;0.10;;;;;;;0.72;100.00;98637.47;5093272;28;20225;-52
2024/01/14 10:48:59;;;;;;;0.10;0.10;;;;;;;0.88;100.00;98624.78;5093401;28;20317;-52
2024/01/14 10:51:50;;;;;;;0.10;0.10;;;;;;;0.83;100.00;98610.13;5091759;28;20289;-52
2024/01/14 10:54:43;;;;;;;0.10;0.10;;;;;;;0.73;100.00;98615.72;5093070;28;20291;-51
2024/01/14 10:57:34;;;;;;;0.00;0.00;;;;;;;0.71;100.00;98615.75;5091696;28;20202;-52
2024/01/14 11:00:21;;;;;;;0.10;0.10;;;;;;;0.89;100.00;98616.06;5093243;28;20273;-53
2024/01/14 11:03:10;;;;;;;0.10;0.10;;;;;;;0.86;100.00;98611.78;5093316;28;20207;-52
2024/01/14 11:05:59;;;;;;;0.10;0.10;;;;;;;0.82;100.00;98607.59;5091788;28;20195;-52
2024/01/14 11:08:46;;;;;;;0.10;0.10;;;;;;;0.89;100.00;98603.88;5093086;28;20198;-52
2024/01/14 11:11:41;;;;;;;0.10;0.10;;;;;;;0.82;100.00;98603.22;5092942;28;20194;-51
2024/01/14 11:14:36;;;;;;;0.10;0.10;;;;;;;0.79;100.00;98597.28;5093080;28;20338;-52
2024/01/14 11:17:39;;;;;;;0.10;0.10;;;;;;;0.80;100.00;98596.38;5092762;28;20321;-52
2024/01/14 11:20:30;;;;;;;0.10;0.10;;;;;;;0.71;100.00;98589.72;5091565;28;20195;-52
2024/01/14 11:23:34;;;;;;;0.10;0.10;;;;;;;0.27;100.00;98586.78;5092337;28;20763;-52
2024/01/14 11:26:24;;;;;;;0.10;0.10;;;;;;;0.33;100.00;98584.91;5092746;28;20199;-51
2024/01/14 11:29:11;;;;;;;0.10;0.10;;;;;;;0.46;100.00;98574.03;5092776;28;20187;-52
2024/01/14 11:32:12;;;;;;;0.10;0.10;;;;;;;0.45;100.00;98574.06;5092466;28;20779;-52
2024/01/14 11:34:59;;;;;;;0.10;0.10;;;;;;;0.64;100.00;98563.91;5091345;28;20203;-52
2024/01/14 11:37:48;;;;;;;0.10;0.10;;;;;;;0.82;100.00;98566.72;5092760;28;20649;-52
2024/01/14 11:40:37;;;;;;;0.00;0.00;;;;;;;0.56;100.00;98562.38;5092791;28;20194;-52
2024/01/14 11:43:28;;;;;;;0.00;0.00;;;;;;;0.59;100.00;98556.25;5092793;28;20229;-52
2024/01/14 11:46:35;;;;;;;0.10;0.10;;;;;;;0.70;100.00;98550.66;5092743;28;20211;-53
2024/01/14 11:49:24;;;;;;;0.10;0.10;;;;;;;0.74;100.00;98542.69;5092673;28;20202;-52
2024/01/14 11:52:12;;;;;;;0.10;0.10;;;;;;;0.80;100.00;98541.63;5092642;28;20638;-52
2024/01/14 11:54:59;;;;;;;0.00;0.00;;;;;;;0.74;100.00;98534.88;5093506;28;20233;-52
2024/01/14 11:57:48;;;;;;;0.10;0.10;;;;;;;0.65;100.00;98529.97;5096532;28;20195;-53
2024/01/14 12:00:36;;;;;;;0.00;0.00;;;;;;;0.69;100.00;98520.31;5096541;28;20218;-52
2024/01/14 12:03:23;;;;;;;0.10;0.10;;;;;;;0.70;100.00;98520.25;5096391;28;20214;-52
2024/01/14 12:06:10;;;;;;;0.10;0.10;;;;;;;0.86;100.00;98512.72;5095158;28;20198;-52
2024/01/14 12:09:01;;;;;;;0.03;0.03;;;;;;;0.64;100.00;98506.56;5096352;28;20198;-52
2024/01/14 12:11:48;;;;;;;0.00;0.00;;;;;;;0.59;100.00;98493.72;5096187;28;20760;-53
2024/01/14 12:14:37;;;;;;;0.10;0.10;;;;;;;0.82;100.00;98482.47;5096379;28;20194;-52
2024/01/14 12:17:24;;;;;;;0.00;0.00;;;;;;;1.00;100.00;98471.41;5096063;28;20249;-52
2024/01/14 12:20:12;;;;;;;0.00;0.00;;;;;;;1.12;100.00;98470.94;5094394;28;20198;-53
2024/01/14 12:23:01;;;;;;;0.00;0.00;;;;;;;1.33;100.00;98458.84;5075603;28;20219;-52
2024/01/14 12:25:48;;;;;;;0.10;0.10;;;;;;;1.21;100.00;98454.09;5075761;28;20203;-52
2024/01/14 12:28:35;;;;;;;0.03;0.03;;;;;;;0.80;100.00;98455.63;5075772;28;20195;-52
2024/01/14 12:31:26;;;;;;;0.10;0.10;;;;;;;0.77;100.00;98440.97;5087117;28;20191;-52
2024/01/14 12:34:17;;;;;;;0.10;0.10;;;;;;;0.74;100.00;98437.59;5095722;28;20222;-52
2024/01/14 12:37:05;;;;;;;0.10;0.10;;;;;;;0.87;100.00;98431.06;5095890;28;20242;-52
2024/01/14 12:39:57;;;;;;;0.10;0.10;;;;;;;0.88;100.00;98430.16;5095808;28;20198;-52
2024/01/14 12:42:44;;;;;;;0.10;0.10;;;;;;;0.72;100.00;98426.38;5076212;28;20192;-52
2024/01/14 12:45:31;;;;;;;0.10;0.10;;;;;;;0.86;100.00;98421.50;5075557;28;20191;-52
2024/01/14 12:48:22;;;;;;;0.00;0.00;;;;;;;1.13;100.00;98417.03;5077706;28;20199;-53
2024/01/14 12:51:09;;;;;;;0.10;0.10;;;;;;;0.94;100.00;98419.47;5083130;28;20764;-52
2024/01/14 12:53:56;;;;;;;0.00;0.00;;;;;;;0.77;100.00;98420.13;5095200;28;20215;-52
2024/01/14 12:56:58;;;;;;;0.10;0.10;;;;;;;0.34;100.00;98405.16;5095403;28;20226;-52
2024/01/14 12:59:47;;;;;;;0.10;0.10;;;;;;;0.35;100.00;98412.06;5095519;28;20214;-52
2024/01/14 13:02:34;;;;;;;0.10;0.10;;;;;;;0.56;100.00;98390.44;5075270;28;20199;-52
2024/01/14 13:05:23;;;;;;;0.10;0.10;;;;;;;1.03;100.00;98397.41;5073419;28;20325;-52
2024/01/14 13:08:10;;;;;;;0.00;0.00;;;;;;;0.99;100.00;98388.03;5075078;28;20678;-53
2024/01/14 13:10:57;;;;;;;0.10;0.10;;;;;;;0.73;100.00;98392.44;5082305;28;20210;-52